Time;durP1;ratioP1;P1;durP2;ratioP2;P2;SDS_P1;SDS_P2;PMS_P1;PMS_P2;Temp;Humidity;BMP_temperature;BMP_pressure;BME280_temperature;BME280_humidity;BME280_pressure;Samples;Min_cycle;Max_cycle;Signal;HPM_P1;HPM_P2
2024/03/19 00:01:44;;;;;;;2.33;1.50;;;;;;;4.84;100.00;101934.28;6143771;23;20017;-72
2024/03/19 00:04:10;;;;;;;2.40;1.30;;;;;;;4.82;100.00;101925.72;6121645;23;20105;-72
2024/03/19 00:06:36;;;;;;;2.25;1.40;;;;;;;4.79;100.00;101924.25;6145078;23;20104;-73
2024/03/19 00:09:03;;;;;;;5.18;1.60;;;;;;;4.71;100.00;101929.78;6120312;23;20518;-73
2024/03/19 00:11:29;;;;;;;2.92;1.67;;;;;;;4.68;100.00;101932.84;6146041;23;20020;-72
2024/03/19 00:13:55;;;;;;;2.60;1.58;;;;;;;4.64;100.00;101929.75;6171606;23;20017;-73
2024/03/19 00:16:20;;;;;;;2.47;1.58;;;;;;;4.61;100.00;101932.81;6097366;23;20100;-73
2024/03/19 00:18:46;;;;;;;2.65;1.63;;;;;;;4.62;100.00;101931.81;6120089;23;20120;-74
2024/03/19 00:21:11;;;;;;;3.13;1.45;;;;;;;4.61;100.00;101930.16;6121436;23;20044;-71
2024/03/19 00:23:37;;;;;;;5.38;1.40;;;;;;;4.58;100.00;101929.75;6145435;23;20027;-70
2024/03/19 00:26:05;;;;;;;3.35;1.40;;;;;;;4.55;100.00;101930.16;6122996;23;20013;-72
2024/03/19 00:28:31;;;;;;;2.50;1.30;;;;;;;4.54;100.00;101929.34;6145148;23;20088;-72
2024/03/19 00:30:57;;;;;;;2.63;2.00;;;;;;;4.54;100.00;101928.50;6147230;23;20041;-73
2024/03/19 00:33:23;;;;;;;2.83;1.67;;;;;;;4.54;100.00;101925.84;6173050;23;20095;-71
2024/03/19 00:35:49;;;;;;;3.10;1.98;;;;;;;4.55;100.00;101919.53;6147409;23;20522;-72
2024/03/19 00:38:14;;;;;;;2.90;1.63;;;;;;;4.51;100.00;101921.75;6173034;23;20017;-72
2024/03/19 00:40:43;;;;;;;6.13;1.70;;;;;;;4.52;100.00;101926.03;6143774;23;20013;-72
2024/03/19 00:43:08;;;;;;;2.90;1.77;;;;;;;4.53;100.00;101935.63;6144040;23;20013;-72
2024/03/19 00:45:34;;;;;;;2.92;1.85;;;;;;;4.51;100.00;101929.72;6146554;23;20024;-72
2024/03/19 00:48:00;;;;;;;3.03;2.03;;;;;;;4.50;100.00;101933.41;6145426;23;20041;-72
2024/03/19 00:50:26;;;;;;;2.83;1.67;;;;;;;4.51;100.00;101940.34;6173908;23;20378;-73
2024/03/19 00:52:52;;;;;;;3.38;2.33;;;;;;;4.49;100.00;101936.25;6121643;23;20021;-73
2024/03/19 00:55:18;;;;;;;4.22;2.00;;;;;;;4.46;100.00;101940.09;6147969;23;20043;-72
2024/03/19 00:57:44;;;;;;;2.63;1.85;;;;;;;4.43;100.00;101932.56;6145746;23;20359;-72
2024/03/19 01:00:14;;;;;;;;;;;;;;;4.38;100.00;101925.19;6148330;23;20608;-73
2024/03/19 01:02:43;;;;;;;3.20;1.75;;;;;;;4.35;100.00;101935.41;6122696;23;19919;-73
2024/03/19 01:05:11;;;;;;;4.65;2.33;;;;;;;4.36;100.00;101931.72;6146508;23;20024;-73
2024/03/19 01:07:41;;;;;;;3.63;2.05;;;;;;;4.32;100.00;101927.81;6146896;23;20016;-73
2024/03/19 01:10:12;;;;;;;5.07;2.58;;;;;;;4.26;100.00;101932.09;6147818;23;20012;-73
2024/03/19 01:12:39;;;;;;;3.42;2.50;;;;;;;4.29;100.00;101929.06;6173475;23;20490;-72
2024/03/19 01:15:06;;;;;;;3.50;2.17;;;;;;;4.32;100.00;101930.47;6145996;23;20052;-71
2024/03/19 01:17:35;;;;;;;2.95;2.20;;;;;;;4.23;100.00;101931.69;6146525;23;20036;-73
2024/03/19 01:20:02;;;;;;;4.38;2.83;;;;;;;4.27;100.00;101922.31;6147298;23;20005;-72
2024/03/19 01:22:28;;;;;;;4.03;2.55;;;;;;;4.24;100.00;101925.34;6147610;23;20021;-72
2024/03/19 01:24:53;;;;;;;3.38;2.50;;;;;;;4.17;100.00;101919.22;6146224;23;20184;-72
2024/03/19 01:27:19;;;;;;;5.10;2.78;;;;;;;4.08;100.00;101919.38;6172547;23;20458;-72
2024/03/19 01:29:45;;;;;;;3.70;2.60;;;;;;;3.95;100.00;101915.84;6146179;23;20096;-72
2024/03/19 01:32:10;;;;;;;3.80;2.80;;;;;;;3.89;100.00;101928.06;6146451;23;20024;-72
2024/03/19 01:34:36;;;;;;;4.30;2.60;;;;;;;3.89;100.00;101920.09;6146976;23;20008;-71
2024/03/19 01:37:02;;;;;;;3.72;2.58;;;;;;;3.72;100.00;101914.28;6096970;23;20013;-71
2024/03/19 01:39:27;;;;;;;4.25;3.15;;;;;;;3.64;100.00;101917.09;6172574;23;20009;-71
2024/03/19 01:41:57;;;;;;;4.15;3.15;;;;;;;3.58;100.00;101906.47;6146022;23;20049;-72
2024/03/19 01:44:22;;;;;;;3.38;2.20;;;;;;;3.54;100.00;101912.16;6098247;23;20544;-72
2024/03/19 01:46:48;;;;;;;3.85;2.70;;;;;;;3.50;100.00;101910.91;6120149;23;20458;-71
2024/03/19 01:49:14;;;;;;;6.25;3.30;;;;;;;3.48;100.00;101914.78;6145918;23;20038;-71
2024/03/19 01:51:42;;;;;;;5.60;3.30;;;;;;;3.43;100.00;101906.59;6121504;23;20026;-71
2024/03/19 01:54:09;;;;;;;6.00;3.10;;;;;;;3.43;100.00;101909.22;6120685;23;20137;-72
2024/03/19 01:56:35;;;;;;;4.97;2.80;;;;;;;3.45;100.00;101912.50;6147482;23;20013;-71
2024/03/19 01:59:01;;;;;;;5.35;3.20;;;;;;;3.41;100.00;101914.72;6172639;23;20059;-72
2024/03/19 02:01:26;;;;;;;5.13;2.70;;;;;;;3.41;100.00;101914.72;6145823;23;20017;-72
2024/03/19 02:03:52;;;;;;;5.38;2.85;;;;;;;3.36;100.00;101914.47;6144646;23;20452;-71
2024/03/19 02:06:20;;;;;;;4.28;2.60;;;;;;;3.38;100.00;101915.09;6144742;23;20017;-71
2024/03/19 02:09:00;;;;;;;4.53;3.00;;;;;;;3.36;100.00;101914.47;6143746;23;20107;-71
2024/03/19 02:11:26;;;;;;;4.22;2.90;;;;;;;3.37;100.00;101916.13;6172642;23;20071;-70
2024/03/19 02:13:53;;;;;;;6.15;3.38;;;;;;;3.34;100.00;101907.75;6168930;23;20013;-73
2024/03/19 02:16:19;;;;;;;5.60;2.90;;;;;;;3.28;100.00;101906.69;6144031;23;20036;-74
2024/03/19 02:18:45;;;;;;;4.30;3.00;;;;;;;3.26;100.00;101903.44;6143969;23;20017;-70
2024/03/19 02:21:10;;;;;;;4.85;3.20;;;;;;;3.24;100.00;101895.66;6143901;23;20892;-72
2024/03/19 02:23:36;;;;;;;4.93;2.90;;;;;;;3.22;100.00;101894.22;6144371;23;20442;-71
2024/03/19 02:26:02;;;;;;;5.63;3.63;;;;;;;3.21;100.00;101905.81;6120094;23;20051;-70
2024/03/19 02:28:28;;;;;;;4.32;2.95;;;;;;;3.12;100.00;101894.56;6144748;23;20096;-71
2024/03/19 02:30:53;;;;;;;5.00;2.85;;;;;;;3.06;100.00;101886.56;6123186;23;20770;-71
2024/03/19 02:33:19;;;;;;;4.43;2.90;;;;;;;3.07;100.00;101890.84;6097945;23;20112;-73
2024/03/19 02:35:45;;;;;;;5.15;2.50;;;;;;;3.05;100.00;101896.34;6174411;23;20088;-73
2024/03/19 02:38:11;;;;;;;5.40;3.13;;;;;;;3.07;100.00;101893.50;6123676;23;20013;-72
2024/03/19 02:40:37;;;;;;;5.00;2.90;;;;;;;3.03;100.00;101897.53;6147565;23;20032;-72
2024/03/19 02:43:02;;;;;;;5.03;3.33;;;;;;;2.99;100.00;101900.56;6120410;23;20358;-71
2024/03/19 02:45:29;;;;;;;4.95;2.88;;;;;;;2.96;100.00;101898.28;6145843;23;20120;-72
2024/03/19 02:47:54;;;;;;;4.65;3.13;;;;;;;2.97;100.00;101893.81;6095506;23;20024;-71
2024/03/19 02:50:20;;;;;;;6.00;2.92;;;;;;;2.99;100.00;101897.94;6145758;23;20013;-71
2024/03/19 02:52:46;;;;;;;4.43;2.95;;;;;;;2.98;100.00;101890.16;6145641;23;20016;-73
2024/03/19 02:55:11;;;;;;;5.05;2.88;;;;;;;2.98;100.00;101891.00;6146681;23;20017;-73
2024/03/19 02:57:39;;;;;;;4.53;3.17;;;;;;;2.95;100.00;101887.91;6172715;23;20725;-72
2024/03/19 03:00:09;;;;;;;3.63;2.60;;;;;;;2.88;100.00;101884.38;6123194;23;20017;-74
2024/03/19 03:02:34;;;;;;;4.63;2.53;;;;;;;2.87;100.00;101886.22;6149165;23;20015;-71
2024/03/19 03:05:00;;;;;;;6.03;3.25;;;;;;;2.83;100.00;101881.47;6123405;23;20013;-72
2024/03/19 03:07:26;;;;;;;4.72;3.25;;;;;;;2.80;100.00;101887.16;6149273;23;20673;-71
2024/03/19 03:09:51;;;;;;;4.47;3.03;;;;;;;2.80;100.00;101890.63;6124048;23;20024;-74
2024/03/19 03:12:17;;;;;;;4.05;2.70;;;;;;;2.78;100.00;101887.38;6175098;23;20017;-73
2024/03/19 03:14:43;;;;;;;4.47;2.45;;;;;;;2.80;100.00;101885.34;6148680;23;20107;-73
2024/03/19 03:17:09;;;;;;;3.70;2.60;;;;;;;2.74;100.00;101891.38;6147618;23;20020;-73
2024/03/19 03:19:35;;;;;;;7.63;2.80;;;;;;;2.75;100.00;101895.66;6148218;23;20012;-74
2024/03/19 03:22:02;;;;;;;4.50;3.22;;;;;;;2.76;100.00;101897.28;6147894;23;20051;-73
2024/03/19 03:24:30;;;;;;;4.68;2.85;;;;;;;2.74;100.00;101901.97;6124448;23;20017;-73
2024/03/19 03:26:56;;;;;;;5.40;3.20;;;;;;;2.80;100.00;101906.50;6147480;23;20017;-73
2024/03/19 03:29:22;;;;;;;3.33;2.67;;;;;;;2.73;100.00;101908.28;6124731;23;20071;-73
2024/03/19 03:31:47;;;;;;;4.30;3.00;;;;;;;2.77;100.00;101909.50;6123493;23;20016;-73
2024/03/19 03:34:13;;;;;;;5.25;3.13;;;;;;;2.73;100.00;101905.63;6122677;23;20017;-74
2024/03/19 03:36:38;;;;;;;5.03;2.80;;;;;;;2.69;100.00;101899.88;6123936;23;20041;-73
2024/03/19 03:39:04;;;;;;;5.05;3.03;;;;;;;2.65;100.00;101900.47;6122949;23;20447;-73
2024/03/19 03:41:30;;;;;;;4.18;2.75;;;;;;;2.66;100.00;101896.81;6149066;23;20017;-73
2024/03/19 03:43:56;;;;;;;4.57;2.97;;;;;;;2.64;100.00;101898.81;6147540;23;20053;-73
2024/03/19 03:46:22;;;;;;;5.85;3.67;;;;;;;2.61;100.00;101901.84;6123864;23;20140;-73
2024/03/19 03:48:48;;;;;;;5.32;3.30;;;;;;;2.61;100.00;101894.72;6147910;23;20020;-73
2024/03/19 03:51:13;;;;;;;6.32;2.90;;;;;;;2.62;100.00;101890.25;6147937;23;20276;-71
2024/03/19 03:53:39;;;;;;;5.70;2.92;;;;;;;2.60;100.00;101897.56;6147723;23;20859;-72
2024/03/19 03:56:06;;;;;;;4.93;3.08;;;;;;;2.58;100.00;101899.59;6122702;23;20017;-73
2024/03/19 03:58:31;;;;;;;4.03;2.72;;;;;;;2.58;100.00;101899.59;6122973;23;20387;-72
2024/03/19 04:00:57;;;;;;;5.38;3.22;;;;;;;2.54;100.00;101891.19;6123645;23;20020;-72
2024/03/19 04:03:22;;;;;;;7.63;3.00;;;;;;;2.47;100.00;101899.06;6146821;23;20025;-72
2024/03/19 04:05:48;;;;;;;4.90;2.67;;;;;;;2.39;100.00;101885.16;6123795;23;20269;-72
2024/03/19 04:08:14;;;;;;;4.43;3.17;;;;;;;2.38;100.00;101876.41;6122913;23;20012;-72
2024/03/19 04:10:40;;;;;;;5.85;3.60;;;;;;;2.37;100.00;101893.28;6123952;23;20027;-72
2024/03/19 04:13:05;;;;;;;4.22;3.17;;;;;;;2.31;100.00;101899.31;6147046;23;20016;-73
2024/03/19 04:15:31;;;;;;;5.00;2.95;;;;;;;2.32;100.00;101890.38;6148117;23;20052;-72
2024/03/19 04:17:56;;;;;;;4.68;3.00;;;;;;;2.25;100.00;101886.00;6173006;23;20108;-72
2024/03/19 04:20:22;;;;;;;5.28;3.05;;;;;;;2.18;100.00;101883.28;6124015;23;20037;-72
2024/03/19 04:22:48;;;;;;;7.07;3.03;;;;;;;2.18;100.00;101883.28;6099362;23;20024;-72
2024/03/19 04:25:14;;;;;;;4.55;2.80;;;;;;;2.22;100.00;101899.59;6174000;23;20027;-72
2024/03/19 04:27:39;;;;;;;5.80;3.10;;;;;;;2.19;100.00;101898.97;6122009;23;20017;-72
2024/03/19 04:30:07;;;;;;;7.18;3.22;;;;;;;2.24;100.00;101906.34;6123442;23;20460;-71
2024/03/19 04:32:32;;;;;;;6.68;3.63;;;;;;;2.21;100.00;101911.97;6147355;23;20048;-72
2024/03/19 04:34:58;;;;;;;8.52;3.40;;;;;;;2.18;100.00;101918.47;6122059;23;20025;-73
2024/03/19 04:37:24;;;;;;;6.22;3.63;;;;;;;2.18;100.00;101917.66;6122257;23;20462;-73
2024/03/19 04:39:49;;;;;;;5.90;2.97;;;;;;;2.17;100.00;101913.38;6098772;23;20013;-73
2024/03/19 04:42:19;;;;;;;6.35;3.08;;;;;;;2.10;100.00;101907.16;6173318;23;20025;-72
2024/03/19 04:44:45;;;;;;;6.20;3.17;;;;;;;2.07;100.00;101903.06;6148160;23;20849;-72
2024/03/19 04:47:11;;;;;;;6.43;3.60;;;;;;;2.07;100.00;101896.97;6096787;23;20013;-72
2024/03/19 04:49:37;;;;;;;4.28;2.85;;;;;;;2.06;100.00;101900.63;6172194;23;20021;-72
2024/03/19 04:52:03;;;;;;;5.15;3.15;;;;;;;2.07;100.00;101895.16;6146098;23;20088;-74
2024/03/19 04:54:29;;;;;;;6.95;3.20;;;;;;;2.05;100.00;101902.44;6123726;23;20089;-72
2024/03/19 04:56:55;;;;;;;4.28;2.85;;;;;;;2.03;100.00;101898.34;6148246;23;20059;-73
2024/03/19 04:59:20;;;;;;;7.65;3.40;;;;;;;1.98;100.00;101888.34;6121893;23;20477;-72
2024/03/19 05:01:47;;;;;;;6.10;3.42;;;;;;;1.98;100.00;101893.63;6123202;23;20025;-71
2024/03/19 05:04:13;;;;;;;5.28;3.35;;;;;;;1.97;100.00;101897.28;6147046;23;20103;-73
2024/03/19 05:06:39;;;;;;;4.85;3.47;;;;;;;1.94;100.00;101894.16;6122977;23;20009;-72
2024/03/19 05:09:06;;;;;;;11.85;3.97;;;;;;;1.94;100.00;101896.81;6146840;23;20016;-71
2024/03/19 05:11:32;;;;;;;4.53;3.17;;;;;;;1.95;100.00;101898.44;6150473;23;20021;-71
2024/03/19 05:13:58;;;;;;;;;;;;;;;1.96;100.00;101900.09;6176166;23;20055;-72
2024/03/19 05:16:24;;;;;;;4.47;2.70;;;;;;;1.96;100.00;101900.09;6125651;23;19919;-71
2024/03/19 05:18:49;;;;;;;5.93;3.13;;;;;;;1.98;100.00;101909.47;6124380;23;20020;-73
2024/03/19 05:21:15;;;;;;;4.70;3.03;;;;;;;1.94;100.00;101907.38;6124064;23;20093;-72
2024/03/19 05:23:42;;;;;;;6.57;3.60;;;;;;;1.95;100.00;101914.28;6124299;23;20100;-72
2024/03/19 05:26:08;;;;;;;4.93;3.17;;;;;;;1.97;100.00;101907.03;6100249;23;20028;-72
2024/03/19 05:28:34;;;;;;;4.80;2.90;;;;;;;1.93;100.00;101906.56;6149204;23;20012;-74
2024/03/19 05:31:00;;;;;;;4.20;2.90;;;;;;;1.90;100.00;101910.41;6124754;23;20024;-72
2024/03/19 05:33:26;;;;;;;3.67;2.80;;;;;;;1.90;100.00;101917.50;6124831;23;20020;-72
2024/03/19 05:35:53;;;;;;;4.82;2.60;;;;;;;1.90;100.00;101913.03;6150257;23;20063;-72
2024/03/19 05:38:19;;;;;;;5.07;2.70;;;;;;;1.90;100.00;101917.50;6099358;23;20071;-72
2024/03/19 05:40:44;;;;;;;4.22;3.00;;;;;;;1.90;100.00;101915.69;6125076;23;20454;-74
2024/03/19 05:43:10;;;;;;;4.82;3.08;;;;;;;1.97;100.00;101917.59;6173888;23;20024;-72
2024/03/19 05:45:36;;;;;;;5.63;2.65;;;;;;;1.95;100.00;101915.13;6100331;23;20016;-73
2024/03/19 05:48:05;;;;;;;6.15;3.00;;;;;;;2.00;100.00;101911.94;6122655;23;20009;-72
2024/03/19 05:50:32;;;;;;;4.68;2.72;;;;;;;2.01;100.00;101918.84;6149149;23;20013;-74
2024/03/19 05:52:59;;;;;;;4.35;3.13;;;;;;;1.98;100.00;101919.22;6124497;23;20047;-73
2024/03/19 05:55:43;;;;;;;5.75;2.95;;;;;;;2.01;100.00;101914.38;6152940;23;20027;-74
2024/03/19 05:58:09;;;;;;;6.03;3.20;;;;;;;2.01;100.00;101924.94;6099736;23;20021;-72
2024/03/19 06:00:35;;;;;;;5.40;2.85;;;;;;;2.07;100.00;101933.97;6176238;23;20009;-74
2024/03/19 06:03:01;;;;;;;5.43;2.90;;;;;;;2.07;100.00;101928.69;6140822;23;20025;-75
2024/03/19 06:05:27;;;;;;;4.50;2.40;;;;;;;2.14;100.00;101925.13;6145902;23;20014;-74
2024/03/19 06:07:53;;;;;;;4.43;2.88;;;;;;;2.13;100.00;101927.94;6150983;23;20083;-74
2024/03/19 06:10:18;;;;;;;4.43;2.65;;;;;;;2.14;100.00;101932.22;6150174;23;20353;-73
2024/03/19 06:12:44;;;;;;;4.75;2.65;;;;;;;2.10;100.00;101929.16;6150866;23;20061;-76
2024/03/19 06:15:09;;;;;;;4.70;2.47;;;;;;;2.21;100.00;101929.66;6146679;23;20024;-73
2024/03/19 06:17:36;;;;;;;3.80;2.80;;;;;;;2.19;100.00;101932.50;6145502;23;20024;-73
2024/03/19 06:20:04;;;;;;;6.43;3.58;;;;;;;2.23;100.00;101935.56;6145545;23;20006;-74
2024/03/19 06:22:29;;;;;;;5.70;3.20;;;;;;;2.29;100.00;101943.59;6145663;23;20020;-73
2024/03/19 06:24:55;;;;;;;4.47;2.60;;;;;;;2.25;100.00;101930.94;6143702;23;20037;-73
2024/03/19 06:27:21;;;;;;;4.95;3.28;;;;;;;2.24;100.00;101926.66;6144535;23;20013;-74
2024/03/19 06:29:46;;;;;;;6.35;3.60;;;;;;;2.18;100.00;101930.88;6119998;23;20083;-72
2024/03/19 06:32:13;;;;;;;8.32;3.70;;;;;;;2.24;100.00;101931.97;6141198;23;20466;-72
2024/03/19 06:34:39;;;;;;;4.85;3.15;;;;;;;2.29;100.00;101935.66;6119544;23;20013;-73
2024/03/19 06:37:05;;;;;;;6.43;2.63;;;;;;;2.25;100.00;101936.22;6147059;23;20017;-75
2024/03/19 06:39:30;;;;;;;3.80;2.90;;;;;;;2.24;100.00;101938.06;6146320;23;20459;-71
2024/03/19 06:41:56;;;;;;;6.70;2.80;;;;;;;2.23;100.00;101936.41;6145867;23;20018;-72
2024/03/19 06:44:22;;;;;;;4.93;3.53;;;;;;;2.23;100.00;101938.22;6119875;23;20188;-73
2024/03/19 06:46:49;;;;;;;5.40;3.47;;;;;;;2.25;100.00;101942.34;6121125;23;20466;-72
2024/03/19 06:49:16;;;;;;;5.07;3.17;;;;;;;2.35;100.00;101955.25;6145770;23;20009;-72
2024/03/19 06:51:41;;;;;;;4.22;3.00;;;;;;;2.41;100.00;101950.03;6122754;23;20467;-72
2024/03/19 06:54:07;;;;;;;4.18;2.90;;;;;;;2.46;100.00;101950.31;6145743;23;20060;-74
2024/03/19 06:56:32;;;;;;;5.68;3.35;;;;;;;2.52;100.00;101961.97;6145713;23;20084;-74
2024/03/19 06:58:58;;;;;;;4.45;2.65;;;;;;;2.58;100.00;101957.75;6120729;23;20425;-73
2024/03/19 07:01:23;;;;;;;4.85;2.47;;;;;;;2.59;100.00;101962.88;6119978;23;20404;-74
2024/03/19 07:03:49;;;;;;;4.57;2.90;;;;;;;2.54;100.00;101972.34;6146446;23;20355;-75
2024/03/19 07:06:15;;;;;;;7.10;3.45;;;;;;;2.52;100.00;101969.09;6176465;23;20432;-73
2024/03/19 07:08:42;;;;;;;5.30;2.80;;;;;;;2.50;100.00;101971.06;6149233;23;20557;-74
2024/03/19 07:11:09;;;;;;;5.68;3.53;;;;;;;2.47;100.00;101973.09;6120873;23;20032;-72
2024/03/19 07:13:35;;;;;;;5.97;2.78;;;;;;;2.57;100.00;101979.91;6150302;23;20017;-73
2024/03/19 07:16:01;;;;;;;5.63;2.83;;;;;;;2.60;100.00;101980.38;6124152;23;20024;-72
2024/03/19 07:18:28;;;;;;;5.05;3.10;;;;;;;2.64;100.00;101984.28;6149660;23;20014;-72
2024/03/19 07:20:55;;;;;;;8.68;3.13;;;;;;;2.65;100.00;101980.63;6147304;23;20037;-73
2024/03/19 07:23:21;;;;;;;4.88;2.95;;;;;;;2.66;100.00;101990.19;6148150;23;20020;-71
2024/03/19 07:25:46;;;;;;;4.43;2.63;;;;;;;2.70;100.00;101991.44;6148045;23;20088;-75
2024/03/19 07:28:12;;;;;;;6.38;3.25;;;;;;;2.73;100.00;101983.16;6099454;23;20092;-71
2024/03/19 07:30:38;;;;;;;5.93;2.90;;;;;;;2.75;100.00;101977.66;6124628;23;20010;-72
2024/03/19 07:33:04;;;;;;;5.10;3.00;;;;;;;2.76;100.00;101975.84;6147492;23;20020;-71
2024/03/19 07:35:30;;;;;;;4.63;2.90;;;;;;;2.79;100.00;101975.47;6147922;23;20104;-72
2024/03/19 07:37:56;;;;;;;4.68;3.08;;;;;;;2.76;100.00;101981.13;6147573;23;20115;-74
2024/03/19 07:40:22;;;;;;;5.93;3.15;;;;;;;2.87;100.00;101992.06;6147349;23;20010;-72
2024/03/19 07:42:50;;;;;;;5.25;2.58;;;;;;;2.97;100.00;101994.38;6145754;23;20013;-73
2024/03/19 07:45:17;;;;;;;5.40;3.58;;;;;;;3.08;100.00;101995.72;6148177;23;20025;-73
2024/03/19 07:47:43;;;;;;;;;;;;;;;3.13;100.00;102004.72;6146933;23;20068;-72
2024/03/19 07:50:10;;;;;;;4.15;2.55;;;;;;;3.20;100.00;101995.03;6144975;23;19916;-71
2024/03/19 07:52:37;;;;;;;5.00;3.30;;;;;;;3.30;100.00;102005.28;6147502;23;20020;-73
2024/03/19 07:55:03;;;;;;;6.05;3.10;;;;;;;3.31;100.00;101996.31;6145295;23;20009;-74
2024/03/19 07:57:30;;;;;;;4.63;3.17;;;;;;;3.39;100.00;101996.22;6120513;23;20356;-75
2024/03/19 07:59:56;;;;;;;6.38;3.10;;;;;;;3.46;100.00;101997.06;6146545;23;20017;-73
2024/03/19 08:02:22;;;;;;;4.78;3.17;;;;;;;3.47;100.00;101993.41;6150898;23;20017;-73
2024/03/19 08:04:50;;;;;;;6.60;3.65;;;;;;;3.43;100.00;102000.09;6175318;23;20012;-72
2024/03/19 08:07:19;;;;;;;4.63;3.50;;;;;;;3.44;100.00;102004.38;6123309;23;20534;-73
2024/03/19 08:09:47;;;;;;;5.00;3.28;;;;;;;3.42;100.00;101998.47;6176257;23;20092;-72
2024/03/19 08:12:15;;;;;;;6.47;3.75;;;;;;;3.45;100.00;101994.59;6124595;23;20075;-74
2024/03/19 08:14:41;;;;;;;4.20;2.95;;;;;;;3.53;100.00;101992.66;6148869;23;20016;-72
2024/03/19 08:17:07;;;;;;;6.03;3.42;;;;;;;3.58;100.00;101991.25;6149628;23;20140;-72
2024/03/19 08:19:33;;;;;;;6.30;3.28;;;;;;;3.57;100.00;101979.81;6150713;23;20012;-75
2024/03/19 08:21:58;;;;;;;5.65;3.60;;;;;;;3.66;100.00;101997.22;6177819;23;20017;-76
2024/03/19 08:24:25;;;;;;;7.07;4.47;;;;;;;3.75;100.00;102000.53;6174322;23;20013;-73
2024/03/19 08:26:51;;;;;;;5.38;3.05;;;;;;;3.78;100.00;101998.31;6126120;23;20321;-75
2024/03/19 08:29:17;;;;;;;6.60;3.83;;;;;;;3.88;100.00;101994.53;6175832;23;20508;-75
2024/03/19 08:31:43;;;;;;;6.00;3.38;;;;;;;4.02;100.00;102005.00;6150854;23;20477;-74
2024/03/19 08:34:09;;;;;;;5.60;3.67;;;;;;;4.04;100.00;102002.97;6177356;23;20024;-73
2024/03/19 08:36:35;;;;;;;6.15;3.17;;;;;;;4.00;100.00;102001.72;6150680;23;20009;-73
2024/03/19 08:39:00;;;;;;;4.63;3.00;;;;;;;4.04;100.00;101995.00;6177369;23;20339;-74
2024/03/19 08:41:27;;;;;;;6.20;3.10;;;;;;;3.99;100.00;102000.06;6150529;23;20032;-74
2024/03/19 08:43:52;;;;;;;5.38;3.47;;;;;;;4.15;100.00;101998.13;6151409;23;20017;-74
2024/03/19 08:46:21;;;;;;;7.50;3.78;;;;;;;4.21;100.00;101992.88;6152757;23;20013;-74
2024/03/19 08:48:47;;;;;;;4.70;3.40;;;;;;;4.38;100.00;102003.94;6129988;23;20024;-76
2024/03/19 08:51:14;;;;;;;7.22;3.45;;;;;;;4.45;100.00;102002.13;6156561;23;20017;-75
2024/03/19 08:53:40;;;;;;;5.25;3.70;;;;;;;4.52;100.00;102000.31;6130547;23;20044;-74
2024/03/19 08:56:06;;;;;;;5.18;3.42;;;;;;;4.58;100.00;101999.53;6128133;23;20020;-76
2024/03/19 08:58:31;;;;;;;5.15;3.50;;;;;;;4.63;100.00;101997.13;6150561;23;20048;-74
2024/03/19 09:00:57;;;;;;;5.55;3.33;;;;;;;4.64;100.00;101995.28;6127960;23;20345;-74
2024/03/19 09:03:23;;;;;;;5.47;3.80;;;;;;;4.68;100.00;102009.78;6126668;23;20451;-75
2024/03/19 09:05:56;;;;;;;4.93;3.75;;;;;;;4.70;100.00;102007.75;6177759;23;20036;-74
2024/03/19 09:08:22;;;;;;;5.07;3.88;;;;;;;4.74;100.00;102008.16;6151691;23;20092;-73
2024/03/19 09:10:51;;;;;;;5.97;3.50;;;;;;;4.86;100.00;102002.06;6153198;23;20013;-74
2024/03/19 09:13:17;;;;;;;4.88;3.25;;;;;;;4.99;100.00;102001.28;6103238;23;20020;-74
2024/03/19 09:15:42;;;;;;;6.40;3.78;;;;;;;5.09;100.00;101999.06;6152586;23;20024;-74
2024/03/19 09:18:08;;;;;;;6.05;3.67;;;;;;;5.23;100.00;101991.94;6152171;23;20021;-74
2024/03/19 09:20:34;;;;;;;9.15;4.15;;;;;;;5.26;100.00;101993.34;6127568;23;20372;-74
2024/03/19 09:22:59;;;;;;;7.07;3.45;;;;;;;5.35;100.00;101986.78;6151909;23;20009;-74
2024/03/19 09:25:26;;;;;;;5.80;3.78;;;;;;;5.36;100.00;101983.97;6152029;23;20104;-73
2024/03/19 09:27:52;;;;;;;5.10;3.30;;;;;;;5.32;100.00;101990.69;6127978;23;20486;-75
2024/03/19 09:30:18;;;;;;;6.53;3.80;;;;;;;5.33;100.00;101994.16;6151909;23;20439;-74
2024/03/19 09:32:44;;;;;;;6.28;3.45;;;;;;;5.45;100.00;101997.84;6178754;23;20032;-76
2024/03/19 09:35:09;;;;;;;5.88;3.15;;;;;;;5.46;100.00;101996.81;6153021;23;20020;-74
2024/03/19 09:37:36;;;;;;;5.80;3.40;;;;;;;5.56;100.00;101991.94;6152059;23;20367;-74
2024/03/19 09:40:01;;;;;;;;;;;;;;;5.60;100.00;101982.50;6160011;23;20683;-75
2024/03/19 09:42:27;;;;;;;4.68;4.07;;;;;;;5.75;100.00;101990.25;6135693;23;19989;-73
2024/03/19 09:44:53;;;;;;;7.25;3.53;;;;;;;5.78;100.00;101984.53;6159010;23;20088;-74
2024/03/19 09:47:22;;;;;;;6.90;4.50;;;;;;;5.84;100.00;101993.53;6183450;23;20013;-74
2024/03/19 09:49:49;;;;;;;7.07;3.95;;;;;;;5.86;100.00;101986.16;6130186;23;20079;-74
2024/03/19 09:52:15;;;;;;;5.00;3.50;;;;;;;5.84;100.00;101983.72;6152559;23;20063;-73
2024/03/19 09:54:41;;;;;;;8.20;3.50;;;;;;;5.94;100.00;101984.09;6128446;23;20316;-73
2024/03/19 09:57:17;;;;;;;6.38;3.80;;;;;;;6.04;100.00;101977.56;6154798;23;20039;-73
2024/03/19 09:59:44;;;;;;;5.68;4.00;;;;;;;6.07;100.00;101982.44;6152693;23;20019;-75
2024/03/19 10:02:18;;;;;;;7.35;4.30;;;;;;;6.20;100.00;101983.22;6151443;23;20075;-72
2024/03/19 10:04:48;;;;;;;5.82;3.60;;;;;;;6.25;100.00;101986.06;6152836;23;20351;-73
2024/03/19 10:07:21;;;;;;;5.25;3.72;;;;;;;6.18;100.00;101985.28;6151182;23;20005;-73
2024/03/19 10:09:48;;;;;;;5.70;3.72;;;;;;;6.33;100.00;101978.88;6127865;23;20339;-76
2024/03/19 10:12:15;;;;;;;8.65;4.15;;;;;;;6.52;100.00;101986.78;6177883;23;20052;-73
2024/03/19 10:14:42;;;;;;;6.35;3.72;;;;;;;6.56;100.00;101992.47;6103195;23;20485;-73
2024/03/19 10:17:13;;;;;;;6.95;4.32;;;;;;;6.65;100.00;101983.25;6151408;23;20480;-74
2024/03/19 10:19:39;;;;;;;6.15;4.32;;;;;;;6.68;100.00;101974.00;6178935;23;20009;-73
2024/03/19 10:22:10;;;;;;;6.55;4.18;;;;;;;6.74;100.00;101979.28;6127888;23;20012;-76
2024/03/19 10:24:36;;;;;;;8.70;4.43;;;;;;;6.81;100.00;101974.75;6154514;23;20017;-75
2024/03/19 10:27:05;;;;;;;;;;;;;;;6.80;100.00;101972.28;6136462;23;20096;-74
2024/03/19 10:29:31;;;;;;;7.40;4.40;;;;;;;6.81;100.00;101973.94;6153712;23;19995;-73
2024/03/19 10:31:57;;;;;;;6.30;3.60;;;;;;;6.93;100.00;101966.06;6181441;23;20426;-72
2024/03/19 10:34:23;;;;;;;7.28;4.22;;;;;;;6.88;100.00;101957.91;6132172;23;20032;-73
2024/03/19 10:36:51;;;;;;;7.88;4.68;;;;;;;6.97;100.00;101967.25;6155588;23;20023;-73
2024/03/19 10:39:21;;;;;;;6.55;4.70;;;;;;;7.15;100.00;101943.38;6155076;23;20017;-73
2024/03/19 10:41:55;;;;;;;8.05;4.47;;;;;;;7.23;100.00;101944.94;6131628;23;20016;-74
2024/03/19 10:44:21;;;;;;;6.70;4.35;;;;;;;7.38;100.00;101942.75;6178998;23;20451;-71
2024/03/19 10:46:49;;;;;;;7.25;5.32;;;;;;;7.29;100.00;101949.41;6153116;23;20093;-72
2024/03/19 10:49:23;;;;;;;8.57;4.47;;;;;;;7.32;100.00;101944.47;6153444;23;20439;-72
2024/03/19 10:51:54;;;;;;;8.10;5.00;;;;;;;7.36;100.00;101940.31;6129581;23;20024;-74
2024/03/19 10:54:26;;;;;;;7.68;4.85;;;;;;;7.53;100.00;101950.44;6178653;23;20017;-74
2024/03/19 10:56:52;;;;;;;11.55;4.97;;;;;;;7.66;100.00;101944.97;6129152;23;20024;-73
2024/03/19 10:59:18;;;;;;;6.50;4.75;;;;;;;7.58;100.00;101942.56;6151551;23;20009;-73
2024/03/19 11:01:46;;;;;;;10.82;4.57;;;;;;;7.76;100.00;101939.09;6150807;23;20363;-73
2024/03/19 11:04:14;;;;;;;6.72;4.55;;;;;;;7.92;100.00;101936.69;6128361;23;20366;-73
2024/03/19 11:06:40;;;;;;;7.40;5.07;;;;;;;7.97;100.00;101940.53;6125646;23;20024;-72
2024/03/19 11:09:18;;;;;;;8.13;5.13;;;;;;;8.07;100.00;101935.50;6127479;23;20016;-74
2024/03/19 11:11:43;;;;;;;8.27;4.82;;;;;;;8.20;100.00;101922.81;6178246;23;20594;-72
2024/03/19 11:14:20;;;;;;;6.97;5.07;;;;;;;8.33;100.00;101927.16;6178254;23;20726;-73
2024/03/19 11:16:46;;;;;;;10.27;5.40;;;;;;;8.41;100.00;101926.88;6124592;23;20020;-73
2024/03/19 11:19:22;;;;;;;11.07;5.30;;;;;;;8.41;100.00;101926.06;6178634;23;20343;-73
2024/03/19 11:21:53;;;;;;;7.78;5.40;;;;;;;8.20;100.00;101927.31;6152457;23;20012;-73
2024/03/19 11:24:22;;;;;;;15.57;5.70;;;;;;;8.33;100.00;101926.31;6152054;23;20024;-71